createdAt,value
2018-12-18T00:00:36.510Z,18.90
2018-12-18T00:03:05.197Z,20.30
2018-12-18T00:05:35.914Z,15.17
2018-12-18T00:08:05.755Z,20.53
2018-12-18T00:10:39.654Z,18.50
2018-12-18T00:13:09.231Z,16.63
2018-12-18T00:15:37.682Z,18.57
2018-12-18T00:18:06.110Z,20.57
2018-12-18T00:20:34.554Z,14.33
2018-12-18T00:23:03.005Z,14.90
2018-12-18T00:25:31.454Z,12.33
2018-12-18T00:27:59.886Z,11.70
2018-12-18T00:30:28.386Z,13.30
2018-12-18T00:32:56.818Z,9.50
2018-12-18T00:35:25.266Z,13.23
2018-12-18T00:37:53.689Z,16.00
2018-12-18T00:40:22.558Z,18.30
2018-12-18T00:42:50.998Z,17.30
2018-12-18T00:45:19.431Z,17.73
2018-12-18T00:47:47.902Z,15.70
2018-12-18T00:50:16.330Z,15.20
2018-12-18T00:52:44.810Z,14.47
2018-12-18T00:55:13.230Z,14.70
2018-12-18T00:57:41.681Z,17.30
2018-12-18T01:00:10.432Z,18.40
2018-12-18T01:02:38.888Z,16.23
2018-12-18T01:05:07.460Z,18.00
2018-12-18T01:07:35.913Z,18.97
2018-12-18T01:10:05.359Z,18.87
2018-12-18T01:12:33.806Z,19.27
2018-12-18T01:15:02.230Z,19.60
2018-12-18T01:17:30.681Z,19.30
2018-12-18T01:19:59.126Z,18.47
2018-12-18T01:22:27.570Z,18.20
2018-12-18T01:24:56.010Z,19.10
2018-12-18T01:27:24.454Z,15.60
2018-12-18T01:29:52.874Z,17.33
2018-12-18T01:32:21.330Z,15.63
2018-12-18T01:34:49.775Z,14.90
2018-12-18T01:37:18.222Z,14.70
2018-12-18T01:39:46.654Z,16.93
2018-12-18T01:42:15.098Z,14.90
2018-12-18T01:44:43.530Z,11.80
2018-12-18T01:47:11.975Z,12.30
2018-12-18T01:49:40.456Z,9.90
2018-12-18T01:52:08.920Z,11.50
2018-12-18T01:54:37.346Z,11.53
2018-12-18T01:57:05.799Z,13.53
2018-12-18T01:59:34.228Z,13.10
2018-12-18T02:02:02.706Z,12.37
2018-12-18T02:04:31.139Z,9.93
2018-12-18T02:06:59.597Z,9.87
2018-12-18T02:09:28.032Z,10.57
2018-12-18T02:11:56.465Z,7.67
2018-12-18T02:14:24.902Z,7.70
2018-12-18T02:16:53.330Z,9.23
2018-12-18T02:19:21.778Z,8.97
2018-12-18T02:21:50.215Z,7.87
2018-12-18T02:24:18.651Z,8.90
2018-12-18T02:26:47.090Z,7.03
2018-12-18T02:29:15.531Z,10.87
2018-12-18T02:31:44.011Z,14.00
2018-12-18T02:34:13.851Z,9.33
2018-12-18T02:36:42.611Z,13.67
2018-12-18T02:39:11.112Z,15.40
2018-12-18T02:41:39.590Z,14.87
2018-12-18T02:44:08.035Z,9.60
2018-12-18T02:46:36.468Z,14.90
2018-12-18T02:49:05.056Z,16.53
2018-12-18T02:51:33.487Z,17.60
2018-12-18T02:54:01.955Z,13.83
2018-12-18T02:56:30.381Z,16.53
2018-12-18T02:58:58.835Z,13.93
2018-12-18T03:01:27.311Z,13.57
2018-12-18T03:03:55.766Z,11.80
2018-12-18T03:06:24.203Z,11.53
2018-12-18T03:08:52.716Z,11.00
2018-12-18T03:11:21.463Z,8.97
2018-12-18T03:13:50.103Z,12.90
2018-12-18T03:16:18.562Z,10.10
2018-12-18T03:18:47.007Z,9.90
2018-12-18T03:21:16.875Z,10.03
2018-12-18T03:23:45.315Z,9.27
2018-12-18T03:26:13.740Z,11.37
2018-12-18T03:28:42.212Z,13.97
2018-12-18T03:31:10.658Z,10.53
2018-12-18T03:33:39.128Z,10.97
2018-12-18T03:36:07.575Z,11.40
2018-12-18T03:38:36.001Z,8.63
2018-12-18T03:41:04.467Z,10.73
2018-12-18T03:43:32.903Z,10.10
2018-12-18T03:46:01.347Z,8.07
2018-12-18T03:48:29.770Z,8.97
2018-12-18T03:50:58.235Z,9.53
2018-12-18T03:53:26.678Z,10.60
2018-12-18T03:55:55.144Z,11.77
2018-12-18T03:58:23.594Z,8.90
2018-12-18T04:00:52.150Z,8.60
2018-12-18T04:03:20.576Z,7.47
2018-12-18T04:05:49.032Z,8.93
2018-12-18T04:08:17.483Z,8.60
2018-12-18T04:10:46.058Z,9.10
2018-12-18T04:13:14.489Z,7.60
2018-12-18T04:15:43.058Z,10.90
2018-12-18T04:18:11.490Z,10.40
2018-12-18T04:20:39.926Z,10.80
2018-12-18T04:23:08.356Z,10.90
2018-12-18T04:25:36.810Z,13.43
2018-12-18T04:28:05.235Z,12.87
2018-12-18T04:30:33.692Z,12.47
2018-12-18T04:33:02.146Z,11.23
2018-12-18T04:35:30.581Z,13.27
2018-12-18T04:37:59.068Z,13.73
2018-12-18T04:40:27.559Z,13.50
2018-12-18T04:42:55.972Z,12.40
2018-12-18T04:45:24.416Z,13.60
2018-12-18T04:47:52.930Z,11.93
2018-12-18T04:50:21.326Z,12.70
2018-12-18T04:52:49.814Z,11.83
2018-12-18T04:55:18.222Z,11.10
2018-12-18T04:57:46.634Z,11.03
2018-12-18T05:00:15.151Z,9.80
2018-12-18T05:02:43.584Z,8.80
2018-12-18T05:05:12.100Z,9.07
2018-12-18T05:07:40.575Z,12.33
2018-12-18T05:10:08.986Z,10.10
2018-12-18T05:12:37.415Z,10.57
2018-12-18T05:15:06.322Z,10.40
2018-12-18T05:17:34.918Z,15.27
2018-12-18T05:20:03.542Z,14.03
2018-12-18T05:22:31.979Z,11.10
2018-12-18T05:25:00.378Z,10.83
2018-12-18T05:27:28.922Z,10.63
2018-12-18T05:29:57.323Z,10.73
2018-12-18T05:32:25.753Z,12.77
2018-12-18T05:34:56.690Z,14.07
2018-12-18T05:37:24.598Z,11.60
2018-12-18T05:39:52.998Z,13.10
2018-12-18T05:42:21.424Z,13.20
2018-12-18T05:44:49.814Z,12.30
2018-12-18T05:47:18.243Z,13.53
2018-12-18T05:49:46.652Z,11.47
2018-12-18T05:52:15.107Z,11.33
2018-12-18T05:54:43.534Z,9.43
2018-12-18T05:57:12.366Z,7.30
2018-12-18T05:59:40.769Z,7.50
2018-12-18T06:02:09.187Z,6.87
2018-12-18T06:04:37.589Z,6.17
2018-12-18T06:07:05.998Z,8.87
2018-12-18T06:09:34.415Z,10.77
2018-12-18T06:12:02.819Z,12.97
2018-12-18T06:14:31.250Z,10.80
2018-12-18T06:16:59.691Z,14.97
2018-12-18T06:19:28.120Z,11.10
2018-12-18T06:21:56.523Z,10.50
2018-12-18T06:24:24.945Z,8.20
2018-12-18T06:26:53.358Z,8.20
2018-12-18T06:29:21.818Z,6.83
2018-12-18T06:31:50.218Z,11.97
2018-12-18T06:34:18.640Z,7.87
2018-12-18T06:36:47.034Z,7.13
2018-12-18T06:39:15.801Z,6.63
2018-12-18T06:41:44.217Z,8.73
2018-12-18T06:44:12.641Z,10.00
2018-12-18T06:46:41.091Z,13.30
2018-12-18T06:49:09.546Z,15.17
2018-12-18T06:51:37.949Z,13.00
2018-12-18T06:54:06.603Z,14.07
2018-12-18T06:56:35.011Z,16.00
2018-12-18T06:59:03.434Z,16.03
2018-12-18T07:01:31.834Z,19.80
2018-12-18T07:04:00.246Z,19.67
2018-12-18T07:06:28.759Z,18.10
2018-12-18T07:08:57.169Z,16.57
2018-12-18T07:11:25.672Z,14.20
2018-12-18T07:13:54.118Z,14.17
2018-12-18T07:16:22.513Z,11.20
2018-12-18T07:18:50.962Z,9.30
2018-12-18T07:21:19.382Z,9.87
2018-12-18T07:23:47.783Z,9.27
2018-12-18T07:26:16.206Z,10.90
2018-12-18T07:28:44.601Z,9.23
2018-12-18T07:31:13.034Z,11.07
2018-12-18T07:33:41.434Z,8.33
2018-12-18T07:36:09.850Z,6.27
2018-12-18T07:38:38.229Z,6.80
2018-12-18T07:41:06.662Z,8.80
2018-12-18T07:43:35.102Z,13.40
2018-12-18T07:46:03.570Z,15.70
2018-12-18T07:48:31.981Z,15.93
2018-12-18T07:51:00.419Z,12.47
2018-12-18T07:53:28.839Z,11.20
2018-12-18T07:56:00.253Z,10.43
2018-12-18T07:58:27.814Z,9.80
2018-12-18T08:00:56.226Z,9.37
2018-12-18T08:03:24.631Z,12.03
2018-12-18T08:05:53.047Z,12.67
2018-12-18T08:08:21.454Z,14.70
2018-12-18T08:10:49.880Z,11.47
2018-12-18T08:13:18.278Z,12.70
2018-12-18T08:15:46.711Z,13.37
2018-12-18T08:18:15.117Z,11.40
2018-12-18T08:20:43.530Z,9.03
2018-12-18T08:23:11.926Z,8.53
2018-12-18T08:25:40.338Z,6.93
2018-12-18T08:28:08.734Z,6.97
2018-12-18T08:30:37.149Z,8.30
2018-12-18T08:33:05.552Z,10.03
2018-12-18T08:35:36.567Z,14.90
2018-12-18T08:38:04.391Z,16.93
2018-12-18T08:40:32.798Z,15.10
2018-12-18T08:43:01.219Z,18.83
2018-12-18T08:45:29.630Z,17.40
2018-12-18T08:47:58.047Z,17.23
2018-12-18T08:50:26.455Z,16.60
2018-12-18T08:52:54.892Z,17.43
2018-12-18T08:55:23.290Z,17.43
2018-12-18T08:57:51.709Z,16.50
2018-12-18T09:00:20.108Z,13.70
2018-12-18T09:02:48.524Z,10.50
2018-12-18T09:05:16.917Z,11.23
2018-12-18T09:07:45.334Z,10.03
2018-12-18T09:10:13.730Z,8.60
2018-12-18T09:12:42.150Z,10.20
2018-12-18T09:15:15.931Z,12.23
2018-12-18T09:17:47.387Z,12.03
2018-12-18T09:20:15.996Z,14.37
2018-12-18T09:22:44.550Z,17.40
2018-12-18T09:25:12.954Z,16.40
2018-12-18T09:27:41.370Z,21.03
2018-12-18T09:30:10.963Z,18.10
2018-12-18T09:32:39.374Z,18.53
2018-12-18T09:35:08.214Z,34.30
2018-12-18T09:37:36.632Z,35.93
2018-12-18T09:40:07.083Z,30.67
2018-12-18T09:42:40.886Z,52.33
2018-12-18T09:45:09.291Z,24.00
2018-12-18T09:47:37.718Z,18.00
2018-12-18T09:50:07.370Z,16.27
2018-12-18T09:52:35.827Z,16.10
2018-12-18T09:55:04.547Z,15.50
2018-12-18T09:57:38.419Z,15.10
2018-12-18T10:00:08.299Z,17.27
2018-12-18T10:02:36.804Z,17.53
2018-12-18T10:05:05.846Z,15.87
2018-12-18T10:07:34.258Z,16.00
2018-12-18T10:10:02.683Z,15.73
2018-12-18T10:12:36.258Z,17.73
2018-12-18T10:15:04.819Z,13.40
2018-12-18T10:17:33.218Z,14.70
2018-12-18T10:20:01.632Z,14.30
2018-12-18T10:22:30.106Z,17.13
2018-12-18T10:24:59.383Z,12.13
2018-12-18T10:27:27.787Z,13.83
2018-12-18T10:29:56.205Z,15.63
2018-12-18T10:32:24.630Z,13.87
2018-12-18T10:34:53.050Z,12.50
2018-12-18T10:37:21.459Z,14.60
2018-12-18T10:39:49.873Z,10.90
2018-12-18T10:42:18.270Z,10.67
2018-12-18T10:44:46.687Z,10.80
2018-12-18T10:47:15.084Z,11.07
2018-12-18T10:49:43.558Z,10.50
2018-12-18T10:52:11.984Z,10.87
2018-12-18T10:54:40.395Z,12.10
2018-12-18T10:57:08.803Z,9.87
2018-12-18T10:59:37.219Z,9.10
2018-12-18T11:02:05.610Z,9.03
2018-12-18T11:04:34.026Z,8.20
2018-12-18T11:07:02.418Z,9.60
2018-12-18T11:09:30.839Z,9.57
2018-12-18T11:11:59.262Z,8.77
2018-12-18T11:14:27.670Z,9.20
2018-12-18T11:16:56.195Z,9.30
2018-12-18T11:19:24.645Z,9.10
2018-12-18T11:21:53.062Z,11.07
2018-12-18T11:24:21.467Z,10.33
2018-12-18T11:26:49.886Z,9.07
2018-12-18T11:29:18.278Z,8.07
2018-12-18T11:31:46.813Z,8.60
2018-12-18T11:34:15.214Z,6.00
2018-12-18T11:36:43.626Z,5.63
2018-12-18T11:39:12.028Z,5.27
2018-12-18T11:41:40.557Z,4.40
2018-12-18T11:44:08.954Z,5.90
2018-12-18T11:46:37.371Z,6.10
2018-12-18T11:49:05.777Z,5.80
2018-12-18T11:51:34.185Z,7.00
2018-12-18T11:54:02.589Z,6.27
2018-12-18T11:56:31.002Z,7.30
2018-12-18T11:58:59.396Z,7.40
2018-12-18T12:01:27.819Z,7.60
2018-12-18T12:03:56.214Z,8.90
2018-12-18T12:06:24.624Z,8.50
2018-12-18T12:08:53.011Z,8.70
2018-12-18T12:11:21.420Z,8.10
2018-12-18T12:13:49.824Z,9.50
2018-12-18T12:16:18.250Z,8.93
2018-12-18T12:18:46.659Z,9.53
2018-12-18T12:21:15.071Z,8.67
2018-12-18T12:23:43.474Z,9.87
2018-12-18T12:26:17.204Z,8.30
2018-12-18T12:28:45.603Z,9.00
2018-12-18T12:31:14.023Z,8.97
2018-12-18T12:33:42.431Z,8.40
2018-12-18T12:36:10.828Z,6.77
2018-12-18T12:38:39.239Z,7.33
2018-12-18T12:41:07.635Z,7.00
2018-12-18T12:43:36.047Z,8.20
2018-12-18T12:46:04.759Z,7.10
2018-12-18T12:48:38.734Z,6.50
2018-12-18T12:51:07.135Z,5.87
2018-12-18T12:53:35.602Z,6.47
2018-12-18T12:56:04.033Z,7.17
2018-12-18T12:58:32.458Z,6.33
2018-12-18T13:01:00.924Z,5.77
2018-12-18T13:03:29.330Z,5.30
2018-12-18T13:05:57.722Z,5.73
2018-12-18T13:08:26.130Z,5.90
2018-12-18T13:10:54.527Z,5.00
2018-12-18T13:13:23.064Z,4.40
2018-12-18T13:15:51.462Z,4.57
2018-12-18T13:18:19.879Z,3.70
2018-12-18T13:20:48.282Z,5.40
2018-12-18T13:23:16.697Z,4.77
2018-12-18T13:25:45.086Z,4.20
2018-12-18T13:28:13.499Z,4.63
2018-12-18T13:30:41.899Z,4.10
2018-12-18T13:33:10.346Z,4.80
2018-12-18T13:35:38.738Z,4.77
2018-12-18T13:38:07.360Z,4.10
2018-12-18T13:40:35.774Z,4.00
2018-12-18T13:43:04.166Z,4.60
2018-12-18T13:45:32.618Z,3.23
2018-12-18T13:48:01.013Z,3.50
2018-12-18T13:50:29.538Z,2.53
2018-12-18T13:52:57.957Z,2.63
2018-12-18T13:55:26.378Z,4.17
2018-12-18T13:57:54.790Z,4.97
2018-12-18T14:00:23.218Z,3.13
2018-12-18T14:02:51.675Z,3.00
2018-12-18T14:05:20.094Z,3.70
2018-12-18T14:07:48.498Z,3.40
2018-12-18T14:10:16.911Z,3.50
2018-12-18T14:12:49.543Z,3.87
2018-12-18T14:15:17.993Z,3.70
2018-12-18T14:17:46.410Z,3.43
2018-12-18T14:20:14.941Z,4.13
2018-12-18T14:22:43.350Z,3.83
2018-12-18T14:25:11.762Z,4.27
2018-12-18T14:27:40.158Z,2.43
2018-12-18T14:30:08.695Z,4.50
2018-12-18T14:32:37.090Z,3.13
2018-12-18T14:35:05.669Z,4.50
2018-12-18T14:37:34.068Z,3.30
2018-12-18T14:40:02.571Z,3.93
2018-12-18T14:42:30.959Z,4.80
2018-12-18T14:44:59.366Z,5.13
2018-12-18T14:47:27.814Z,6.90
2018-12-18T14:49:56.476Z,6.67
2018-12-18T14:52:24.910Z,6.37
2018-12-18T14:54:53.311Z,7.20
2018-12-18T14:57:21.722Z,6.73
2018-12-18T14:59:50.278Z,7.60
2018-12-18T15:02:18.696Z,8.53
2018-12-18T15:04:47.086Z,8.40
2018-12-18T15:07:15.497Z,7.57
2018-12-18T15:09:43.899Z,8.50
2018-12-18T15:12:12.316Z,7.93
2018-12-18T15:14:41.001Z,6.80
2018-12-18T15:17:09.527Z,7.57
2018-12-18T15:19:37.921Z,6.63
2018-12-18T15:22:06.334Z,6.63
2018-12-18T15:24:34.729Z,6.93
2018-12-18T15:27:03.129Z,5.97
2018-12-18T15:29:31.527Z,7.00
2018-12-18T15:31:59.939Z,5.77
2018-12-18T15:34:28.335Z,6.37
2018-12-18T15:36:56.746Z,7.67
2018-12-18T15:39:25.143Z,6.27
2018-12-18T15:41:53.554Z,6.40
2018-12-18T15:44:21.962Z,6.50
2018-12-18T15:46:50.389Z,6.03
2018-12-18T15:49:18.789Z,6.03
2018-12-18T15:51:47.322Z,6.50
2018-12-18T15:54:15.767Z,5.83
2018-12-18T15:56:44.158Z,5.77
2018-12-18T15:59:12.610Z,5.23
2018-12-18T16:01:45.762Z,6.20
2018-12-18T16:04:14.230Z,5.57
2018-12-18T16:06:42.625Z,5.67
2018-12-18T16:09:11.058Z,6.00
2018-12-18T16:11:40.128Z,4.50
2018-12-18T16:14:08.543Z,5.57
2018-12-18T16:16:36.942Z,5.20
2018-12-18T16:19:05.351Z,7.23
2018-12-18T16:21:41.683Z,5.10
2018-12-18T16:24:10.171Z,4.80
2018-12-18T16:26:38.673Z,4.50
2018-12-18T16:29:07.109Z,4.30
2018-12-18T16:31:35.510Z,4.70
2018-12-18T16:34:03.913Z,5.10
2018-12-18T16:36:32.350Z,5.93
2018-12-18T16:39:00.755Z,5.40
2018-12-18T16:41:29.150Z,5.30
2018-12-18T16:44:05.384Z,5.20
2018-12-18T16:46:33.809Z,4.87
2018-12-18T16:49:02.343Z,5.00
2018-12-18T16:51:30.745Z,5.00
2018-12-18T16:53:59.431Z,5.40
2018-12-18T16:56:27.837Z,4.73
2018-12-18T16:58:56.250Z,5.67
2018-12-18T17:01:24.654Z,4.87
2018-12-18T17:03:53.074Z,5.07
2018-12-18T17:06:21.466Z,5.60
2018-12-18T17:08:49.898Z,5.83
2018-12-18T17:11:18.295Z,5.77
2018-12-18T17:13:46.673Z,4.80
2018-12-18T17:16:15.090Z,5.87
2018-12-18T17:18:43.494Z,5.33
2018-12-18T17:21:11.913Z,6.70
2018-12-18T17:23:40.319Z,6.43
2018-12-18T17:26:08.754Z,8.08
2018-12-18T17:28:37.155Z,7.30
2018-12-18T17:31:05.600Z,7.27
2018-12-18T17:33:33.999Z,6.93
2018-12-18T17:36:02.569Z,7.17
2018-12-18T17:38:30.957Z,7.63
2018-12-18T17:40:59.370Z,7.10
2018-12-18T17:43:27.818Z,6.20
2018-12-18T17:45:56.230Z,6.13
2018-12-18T17:48:24.629Z,4.28
2018-12-18T17:50:58.662Z,4.37
2018-12-18T17:53:27.290Z,4.25
2018-12-18T17:55:55.928Z,5.85
2018-12-18T17:58:24.512Z,5.40
2018-12-18T18:00:53.164Z,4.10
2018-12-18T18:03:21.790Z,5.40
2018-12-18T18:05:51.496Z,7.97
2018-12-18T18:08:23.471Z,11.50
2018-12-18T18:10:51.894Z,11.70
2018-12-18T18:13:20.314Z,13.83
2018-12-18T18:15:48.739Z,11.77
2018-12-18T18:18:17.257Z,15.20
2018-12-18T18:20:45.674Z,13.60
2018-12-18T18:23:14.110Z,13.17
2018-12-18T18:25:42.690Z,13.10
2018-12-18T18:28:11.085Z,12.53
2018-12-18T18:30:39.507Z,13.43
2018-12-18T18:33:07.951Z,15.50
2018-12-18T18:35:36.347Z,15.70
2018-12-18T18:38:04.770Z,16.80
2018-12-18T18:40:33.191Z,16.10
2018-12-18T18:43:01.623Z,16.00
2018-12-18T18:45:30.027Z,17.90
2018-12-18T18:47:58.455Z,15.13
2018-12-18T18:50:26.859Z,15.13
2018-12-18T18:52:55.371Z,15.73
2018-12-18T18:55:23.770Z,14.70
2018-12-18T18:57:52.307Z,14.20
2018-12-18T19:00:20.710Z,14.60
2018-12-18T19:02:49.126Z,16.30
2018-12-18T19:05:17.646Z,14.00
2018-12-18T19:07:46.147Z,15.80
2018-12-18T19:10:14.594Z,14.20
2018-12-18T19:12:43.024Z,14.30
2018-12-18T19:15:11.434Z,16.03
2018-12-18T19:17:39.853Z,14.40
2018-12-18T19:20:08.477Z,15.63
2018-12-18T19:22:36.896Z,15.30
2018-12-18T19:25:05.710Z,13.90
2018-12-18T19:27:34.132Z,14.10
2018-12-18T19:30:02.531Z,15.60
2018-12-18T19:32:30.979Z,16.03
2018-12-18T19:34:59.374Z,16.67
2018-12-18T19:37:27.766Z,15.07
2018-12-18T19:39:56.396Z,15.97
2018-12-18T19:42:24.999Z,15.23
2018-12-18T19:44:53.533Z,15.80
2018-12-18T19:47:21.935Z,15.50
2018-12-18T19:49:50.359Z,13.47
2018-12-18T19:52:18.775Z,13.27
2018-12-18T19:54:47.223Z,13.70
2018-12-18T19:57:15.634Z,13.90
2018-12-18T19:59:44.051Z,15.10
2018-12-18T20:02:12.441Z,12.70
2018-12-18T20:04:40.855Z,13.87
2018-12-18T20:07:09.271Z,13.40
2018-12-18T20:09:37.682Z,14.33
2018-12-18T20:12:06.090Z,15.57
2018-12-18T20:14:34.614Z,16.23
2018-12-18T20:17:03.010Z,15.90
2018-12-18T20:19:31.446Z,15.10
2018-12-18T20:21:59.847Z,14.87
2018-12-18T20:24:28.315Z,15.97
2018-12-18T20:26:56.711Z,17.50
2018-12-18T20:29:25.110Z,16.27
2018-12-18T20:31:53.577Z,15.13
2018-12-18T20:34:21.978Z,14.60
2018-12-18T20:36:50.396Z,15.50
2018-12-18T20:39:18.782Z,14.40
2018-12-18T20:41:47.193Z,13.23
2018-12-18T20:44:15.578Z,13.20
2018-12-18T20:46:43.990Z,14.43
2018-12-18T20:49:12.460Z,14.60
2018-12-18T20:51:40.866Z,14.20
2018-12-18T20:54:09.401Z,14.20
2018-12-18T20:56:37.816Z,14.07
2018-12-18T20:59:06.225Z,12.47
2018-12-18T21:01:34.634Z,15.20
2018-12-18T21:04:03.110Z,14.90
2018-12-18T21:06:31.654Z,14.20
2018-12-18T21:09:00.304Z,13.17
2018-12-18T21:11:28.891Z,13.20
2018-12-18T21:13:57.527Z,12.97
2018-12-18T21:16:26.202Z,14.47
2018-12-18T21:18:54.821Z,12.13
2018-12-18T21:21:23.375Z,12.60
2018-12-18T21:23:51.903Z,13.60
2018-12-18T21:26:20.450Z,12.63
2018-12-18T21:28:48.966Z,12.00
2018-12-18T21:31:17.510Z,12.30
2018-12-18T21:33:46.079Z,11.87
2018-12-18T21:36:14.627Z,12.80
2018-12-18T21:38:43.202Z,12.13
2018-12-18T21:41:11.782Z,11.90
2018-12-18T21:43:40.309Z,11.90
2018-12-18T21:46:08.851Z,13.80
2018-12-18T21:48:38.223Z,11.20
2018-12-18T21:51:06.730Z,12.37
2018-12-18T21:53:35.284Z,14.20
2018-12-18T21:56:03.854Z,13.57
2018-12-18T21:58:32.406Z,12.10
2018-12-18T22:01:00.929Z,13.10
2018-12-18T22:03:29.477Z,12.70
2018-12-18T22:05:58.080Z,13.10
2018-12-18T22:08:26.619Z,13.60
2018-12-18T22:10:55.145Z,12.40
2018-12-18T22:13:23.686Z,14.33
2018-12-18T22:15:52.219Z,12.82
2018-12-18T22:18:20.753Z,12.07
2018-12-18T22:20:49.281Z,10.53
2018-12-18T22:23:17.838Z,12.03
2018-12-18T22:25:46.286Z,10.30
2018-12-18T22:28:14.921Z,11.07
2018-12-18T22:30:43.314Z,9.80
2018-12-18T22:33:11.742Z,12.15
2018-12-18T22:35:40.132Z,11.93
2018-12-18T22:38:08.561Z,10.30
2018-12-18T22:40:36.975Z,9.03
2018-12-18T22:43:05.366Z,9.57
2018-12-18T22:45:33.778Z,10.98
2018-12-18T22:48:02.177Z,11.12
2018-12-18T22:50:30.602Z,11.57
2018-12-18T22:52:59.040Z,10.75
2018-12-18T22:55:27.475Z,9.70
2018-12-18T22:57:55.891Z,10.75
2018-12-18T23:00:29.652Z,11.28
2018-12-18T23:02:58.070Z,10.10
2018-12-18T23:05:26.486Z,11.10
2018-12-18T23:07:54.912Z,11.40
2018-12-18T23:10:23.454Z,11.83
2018-12-18T23:12:51.861Z,12.05
2018-12-18T23:15:20.315Z,14.13
2018-12-18T23:17:48.719Z,14.03
2018-12-18T23:20:17.138Z,10.85
2018-12-18T23:22:45.548Z,10.68
2018-12-18T23:25:13.965Z,10.20
2018-12-18T23:27:42.386Z,10.55
2018-12-18T23:30:10.986Z,9.88
2018-12-18T23:32:39.413Z,10.65
2018-12-18T23:35:07.836Z,9.20
2018-12-18T23:37:36.283Z,9.10
2018-12-18T23:40:05.042Z,7.58
2018-12-18T23:42:33.440Z,9.50
2018-12-18T23:45:01.912Z,9.60
2018-12-18T23:47:30.334Z,9.43
2018-12-18T23:49:58.755Z,7.37
2018-12-18T23:52:27.290Z,10.03
2018-12-18T23:54:55.833Z,9.40
2018-12-18T23:57:24.234Z,7.30
2018-12-18T23:59:52.637Z,9.23
